Time;durP1;ratioP1;P1;durP2;ratioP2;P2;SDS_P1;SDS_P2;PMS_P1;PMS_P2;Temp;Humidity;BMP_temperature;BMP_pressure;BME280_temperature;BME280_humidity;BME280_pressure;Samples;Min_cycle;Max_cycle;Signal;HPM_P1;HPM_P2
2022/06/25 00:01:44;;;;;;;6.43;5.20;;;;;;;;;;4996424;28;20050;-77
2022/06/25 00:05:27;;;;;;;7.17;4.63;;;;;;;;;;4996089;28;20272;-77
2022/06/25 00:06:55;;;;;;;7.53;5.10;;;;;;;;;;4995823;28;20331;-77
2022/06/25 00:09:20;;;;;;;7.45;5.00;;;;;;;;;;4996210;28;20026;-76
2022/06/25 00:14:29;;;;;;;6.65;4.93;;;;;;;;;;4996206;28;20045;-77
2022/06/25 00:16:54;;;;;;;7.23;5.23;;;;;;;;;;4995722;28;20030;-77
2022/06/25 00:19:19;;;;;;;7.03;5.23;;;;;;;;;;4995584;28;20339;-77
2022/06/25 00:21:44;;;;;;;7.40;5.43;;;;;;;;;;4995984;28;20295;-77
2022/06/25 00:24:11;;;;;;;7.83;5.23;;;;;;;;;;4996246;28;20034;-78
2022/06/25 00:26:37;;;;;;;8.13;5.32;;;;;;;;;;4995672;28;20331;-76
2022/06/25 00:29:02;;;;;;;5.88;5.05;;;;;;;;;;4995628;28;20026;-77
2022/06/25 00:31:27;;;;;;;7.32;5.28;;;;;;;;;;4995734;28;20037;-78
2022/06/25 00:33:52;;;;;;;7.03;5.28;;;;;;;;;;4978260;28;20109;-77
2022/06/25 00:36:17;;;;;;;7.43;5.67;;;;;;;;;;4995980;28;20034;-77
2022/06/25 00:38:43;;;;;;;8.20;5.63;;;;;;;;;;4995210;28;20259;-78
2022/06/25 00:41:08;;;;;;;7.03;5.77;;;;;;;;;;4995165;28;20741;-76
2022/06/25 00:43:38;;;;;;;10.23;5.47;;;;;;;;;;4995285;28;20816;-77
2022/06/25 00:46:03;;;;;;;7.90;5.32;;;;;;;;;;4995142;28;20753;-77
2022/06/25 00:48:28;;;;;;;9.03;5.47;;;;;;;;;;4995152;28;20113;-78
2022/06/25 00:50:57;;;;;;;8.82;5.80;;;;;;;;;;4995709;28;20350;-77
2022/06/25 00:53:30;;;;;;;8.40;6.10;;;;;;;;;;4995612;28;20033;-77
2022/06/25 00:55:56;;;;;;;8.93;5.53;;;;;;;;;;4995253;28;20022;-77
2022/06/25 00:58:23;;;;;;;7.88;5.95;;;;;;;;;;4995596;28;20030;-77
2022/06/25 01:00:48;;;;;;;9.30;5.85;;;;;;;;;;4995098;28;20105;-77
2022/06/25 01:03:13;;;;;;;10.93;6.40;;;;;;;;;;4994956;28;20440;-77
2022/06/25 01:05:38;;;;;;;9.23;6.35;;;;;;;;;;4994716;28;20256;-77
2022/06/25 01:08:04;;;;;;;7.30;6.10;;;;;;;;;;4995255;28;20072;-78
2022/06/25 01:10:29;;;;;;;8.48;6.40;;;;;;;;;;4977743;28;20259;-77
2022/06/25 01:12:55;;;;;;;9.88;6.30;;;;;;;;;;4995047;28;20034;-77
2022/06/25 01:15:20;;;;;;;9.55;5.93;;;;;;;;;;4994992;28;20026;-77
2022/06/25 01:17:48;;;;;;;8.75;6.05;;;;;;;;;;4977225;28;20160;-76
2022/06/25 01:20:15;;;;;;;7.88;5.57;;;;;;;;;;4994656;28;20026;-76
2022/06/25 01:22:40;;;;;;;9.20;5.68;;;;;;;;;;4995518;28;20027;-76
2022/06/25 01:25:10;;;;;;;8.60;6.18;;;;;;;;;;4977177;28;20033;-75
2022/06/25 01:27:36;;;;;;;8.23;6.40;;;;;;;;;;4994288;28;20615;-71
2022/06/25 01:30:02;;;;;;;10.50;6.05;;;;;;;;;;4977212;28;20109;-71
2022/06/25 01:32:27;;;;;;;9.80;6.50;;;;;;;;;;4977623;28;20030;-71
2022/06/25 01:34:53;;;;;;;13.65;6.45;;;;;;;;;;4994200;28;20029;-71
2022/06/25 01:37:18;;;;;;;9.10;5.70;;;;;;;;;;4994688;28;20022;-71
2022/06/25 01:39:43;;;;;;;7.77;5.80;;;;;;;;;;4994672;28;20798;-70
2022/06/25 01:42:58;;;;;;;7.80;6.47;;;;;;;;;;4994090;28;20777;-71
2022/06/25 01:44:54;;;;;;;9.68;5.65;;;;;;;;;;4993782;28;20279;-71
2022/06/25 01:47:19;;;;;;;17.13;6.03;;;;;;;;;;4994024;28;20466;-70
2022/06/25 01:49:44;;;;;;;10.20;6.17;;;;;;;;;;4994047;28;20026;-71
2022/06/25 01:52:12;;;;;;;7.60;5.97;;;;;;;;;;4994413;28;20284;-71
2022/06/25 01:54:38;;;;;;;7.18;5.97;;;;;;;;;;4994124;28;20614;-72
2022/06/25 01:57:03;;;;;;;7.60;5.73;;;;;;;;;;4994060;28;20113;-70
2022/06/25 01:59:28;;;;;;;6.20;5.53;;;;;;;;;;4976436;28;20288;-70
2022/06/25 02:01:54;;;;;;;7.03;5.87;;;;;;;;;;4993788;28;20071;-71
2022/06/25 02:04:19;;;;;;;8.50;5.63;;;;;;;;;;4994025;28;20271;-70
2022/06/25 02:06:44;;;;;;;7.57;6.00;;;;;;;;;;4994262;28;20034;-70
2022/06/25 02:09:09;;;;;;;6.77;5.20;;;;;;;;;;4994068;28;20281;-71
2022/06/25 02:11:34;;;;;;;8.03;5.87;;;;;;;;;;4993662;28;20258;-71
2022/06/25 02:14:00;;;;;;;9.73;5.80;;;;;;;;;;4993516;28;20283;-71
2022/06/25 02:16:25;;;;;;;8.47;5.80;;;;;;;;;;4993739;28;20260;-71
2022/06/25 02:18:50;;;;;;;6.63;5.67;;;;;;;;;;4993936;28;20256;-71
2022/06/25 02:21:15;;;;;;;9.57;6.13;;;;;;;;;;4994192;28;20259;-71
2022/06/25 02:23:40;;;;;;;8.13;5.70;;;;;;;;;;4993587;28;20248;-71
2022/06/25 02:26:07;;;;;;;9.93;6.70;;;;;;;;;;4993453;28;20259;-72
2022/06/25 02:28:32;;;;;;;9.70;6.32;;;;;;;;;;4993758;28;20300;-70
2022/06/25 02:30:58;;;;;;;8.10;6.03;;;;;;;;;;4993560;28;20073;-72
2022/06/25 02:33:23;;;;;;;8.75;6.30;;;;;;;;;;4993409;28;20480;-71
2022/06/25 02:35:48;;;;;;;10.43;6.20;;;;;;;;;;4995122;28;20109;-76
2022/06/25 02:38:14;;;;;;;13.20;6.50;;;;;;;;;;4996182;28;20252;-76
2022/06/25 02:40:39;;;;;;;7.25;6.35;;;;;;;;;;4980194;28;20318;-75
2022/06/25 02:43:05;;;;;;;11.13;6.07;;;;;;;;;;4999883;28;20030;-76
2022/06/25 02:45:30;;;;;;;8.90;6.05;;;;;;;;;;4981780;28;20031;-75
2022/06/25 02:47:56;;;;;;;9.55;6.47;;;;;;;;;;4998902;28;20118;-76
2022/06/25 02:50:22;;;;;;;11.70;6.72;;;;;;;;;;4999004;28;20062;-76
2022/06/25 02:52:47;;;;;;;9.80;6.28;;;;;;;;;;4999207;28;20034;-76
2022/06/25 02:55:12;;;;;;;9.60;6.00;;;;;;;;;;4981356;28;20045;-76
2022/06/25 03:00:21;;;;;;;8.95;6.13;;;;;;;;;;4999446;28;20088;-76
2022/06/25 03:02:47;;;;;;;13.30;6.85;;;;;;;;;;4999211;28;20022;-76
2022/06/25 03:05:12;;;;;;;9.60;6.57;;;;;;;;;;4998795;28;20045;-76
2022/06/25 03:07:37;;;;;;;9.33;6.37;;;;;;;;;;4998822;28;20470;-76
2022/06/25 03:10:03;;;;;;;12.60;6.60;;;;;;;;;;4999192;28;20676;-76
2022/06/25 03:12:28;;;;;;;7.57;6.72;;;;;;;;;;4998492;28;20280;-75
2022/06/25 03:14:54;;;;;;;10.82;6.50;;;;;;;;;;4998732;28;20027;-76
2022/06/25 03:17:19;;;;;;;8.00;6.53;;;;;;;;;;4998578;28;20026;-76
2022/06/25 03:19:44;;;;;;;13.60;6.70;;;;;;;;;;4998739;28;20290;-76
2022/06/25 03:22:09;;;;;;;8.63;5.82;;;;;;;;;;4999353;28;20256;-75
2022/06/25 03:24:35;;;;;;;9.87;6.23;;;;;;;;;;4981401;28;20026;-75
2022/06/25 03:27:00;;;;;;;6.70;6.00;;;;;;;;;;4999465;28;20264;-76
2022/06/25 03:29:26;;;;;;;9.80;6.07;;;;;;;;;;4999087;28;20026;-75
2022/06/25 03:31:51;;;;;;;8.37;5.70;;;;;;;;;;4998792;28;20026;-75
2022/06/25 03:34:16;;;;;;;9.90;5.97;;;;;;;;;;4998992;28;20248;-77
2022/06/25 03:36:41;;;;;;;13.00;6.03;;;;;;;;;;4980955;28;20270;-75
2022/06/25 03:39:07;;;;;;;9.53;5.83;;;;;;;;;;4980640;28;20354;-76
2022/06/25 03:41:32;;;;;;;8.77;5.90;;;;;;;;;;4998337;28;20290;-76
2022/06/25 03:43:58;;;;;;;8.73;5.70;;;;;;;;;;4980805;28;20022;-76
2022/06/25 03:46:23;;;;;;;8.50;5.90;;;;;;;;;;4998892;28;20506;-76
2022/06/25 03:48:49;;;;;;;8.45;5.82;;;;;;;;;;4998911;28;20038;-76
2022/06/25 03:51:14;;;;;;;11.27;5.87;;;;;;;;;;4998410;28;20179;-75
2022/06/25 03:53:39;;;;;;;9.35;5.88;;;;;;;;;;4998813;28;20283;-76
2022/06/25 03:56:05;;;;;;;8.50;5.35;;;;;;;;;;4998524;28;20022;-76
2022/06/25 03:58:30;;;;;;;8.90;5.35;;;;;;;;;;4980855;28;20037;-77
2022/06/25 04:00:56;;;;;;;7.95;5.72;;;;;;;;;;4998984;28;20507;-76
2022/06/25 04:03:21;;;;;;;8.05;5.70;;;;;;;;;;4998764;28;20023;-76
2022/06/25 04:05:46;;;;;;;6.83;5.60;;;;;;;;;;4998187;28;20368;-75
2022/06/25 04:08:11;;;;;;;8.77;5.87;;;;;;;;;;4981099;28;20264;-76
2022/06/25 04:10:37;;;;;;;8.90;5.90;;;;;;;;;;4981746;28;20306;-76
2022/06/25 04:13:02;;;;;;;9.57;5.78;;;;;;;;;;4998819;28;20288;-75
2022/06/25 04:15:28;;;;;;;10.65;5.97;;;;;;;;;;4981095;28;20080;-75
2022/06/25 04:17:53;;;;;;;8.95;5.55;;;;;;;;;;4998363;28;20030;-76
2022/06/25 04:20:18;;;;;;;8.27;5.57;;;;;;;;;;4998587;28;20023;-76
2022/06/25 04:22:43;;;;;;;10.57;5.27;;;;;;;;;;4998510;28;20268;-77
2022/06/25 04:25:09;;;;;;;9.20;5.85;;;;;;;;;;4997972;28;20275;-76
2022/06/25 04:30:18;;;;;;;9.88;5.43;;;;;;;;;;4998243;28;20250;-76
2022/06/25 04:32:43;;;;;;;9.85;5.72;;;;;;;;;;4997898;28;20026;-77
2022/06/25 04:35:12;;;;;;;7.13;5.47;;;;;;;;;;4997901;28;20026;-76
2022/06/25 04:37:37;;;;;;;7.13;5.25;;;;;;;;;;4997868;28;20260;-76
2022/06/25 04:40:03;;;;;;;11.33;5.33;;;;;;;;;;4980591;28;20137;-76
2022/06/25 04:42:28;;;;;;;9.55;5.65;;;;;;;;;;4998062;28;20252;-77
2022/06/25 04:44:53;;;;;;;10.10;5.10;;;;;;;;;;4998521;28;20117;-77
2022/06/25 04:47:18;;;;;;;10.07;4.77;;;;;;;;;;4999060;28;20307;-77
2022/06/25 04:49:43;;;;;;;8.43;4.17;;;;;;;;;;4981154;28;20275;-75
2022/06/25 04:52:09;;;;;;;8.20;4.17;;;;;;;;;;4980891;28;20284;-77
2022/06/25 04:54:34;;;;;;;8.52;4.28;;;;;;;;;;4998802;28;20263;-76
2022/06/25 04:57:00;;;;;;;10.20;4.53;;;;;;;;;;4998442;28;20037;-78
2022/06/25 04:59:27;;;;;;;7.67;3.97;;;;;;;;;;4998748;28;20026;-76
2022/06/25 05:01:53;;;;;;;8.00;3.72;;;;;;;;;;4980763;28;20335;-77
2022/06/25 05:04:18;;;;;;;8.85;3.50;;;;;;;;;;4997908;28;20451;-77
2022/06/25 05:06:44;;;;;;;8.90;3.03;;;;;;;;;;4998374;28;20484;-76
2022/06/25 05:09:09;;;;;;;8.32;2.85;;;;;;;;;;4998270;28;20088;-76
2022/06/25 05:11:34;;;;;;;5.65;2.60;;;;;;;;;;4998453;28;20030;-77
2022/06/25 05:14:00;;;;;;;8.03;3.10;;;;;;;;;;4998955;28;20026;-76
2022/06/25 05:16:26;;;;;;;8.00;3.37;;;;;;;;;;4998462;28;20263;-77
2022/06/25 05:18:51;;;;;;;5.50;3.05;;;;;;;;;;4998312;28;20256;-76
2022/06/25 05:21:16;;;;;;;8.68;3.53;;;;;;;;;;4998421;28;20026;-77
2022/06/25 05:23:41;;;;;;;7.80;3.13;;;;;;;;;;4998393;28;20053;-76
2022/06/25 05:26:06;;;;;;;6.07;3.30;;;;;;;;;;4979560;28;20264;-75
2022/06/25 05:28:32;;;;;;;10.15;2.90;;;;;;;;;;4979002;28;20077;-76
2022/06/25 05:30:57;;;;;;;7.67;2.70;;;;;;;;;;4996855;28;20049;-76
2022/06/25 05:33:22;;;;;;;6.15;2.78;;;;;;;;;;4996238;28;20283;-77
2022/06/25 05:35:48;;;;;;;5.25;2.70;;;;;;;;;;4996010;28;20026;-76
2022/06/25 05:38:13;;;;;;;4.80;2.63;;;;;;;;;;4996324;28;20046;-77
2022/06/25 05:40:39;;;;;;;5.40;2.70;;;;;;;;;;4995805;28;20110;-76
2022/06/25 05:43:04;;;;;;;6.72;2.40;;;;;;;;;;4996323;28;20308;-76
2022/06/25 05:45:29;;;;;;;4.72;2.13;;;;;;;;;;4996108;28;20034;-77
2022/06/25 05:47:55;;;;;;;7.27;2.80;;;;;;;;;;4978451;28;20403;-76
2022/06/25 05:50:20;;;;;;;4.57;2.47;;;;;;;;;;4996258;28;20821;-75
2022/06/25 05:52:46;;;;;;;4.25;2.47;;;;;;;;;;4978095;28;20022;-77
2022/06/25 05:55:12;;;;;;;5.80;2.30;;;;;;;;;;4995903;28;20022;-75
2022/06/25 05:57:38;;;;;;;8.02;2.20;;;;;;;;;;4978825;28;20030;-76
2022/06/25 06:00:04;;;;;;;7.25;2.30;;;;;;;;;;4995990;28;20076;-77
2022/06/25 06:02:29;;;;;;;3.47;2.05;;;;;;;;;;4978476;28;20038;-76
2022/06/25 06:04:54;;;;;;;4.73;2.40;;;;;;;;;;4995461;28;20033;-75
2022/06/25 06:07:20;;;;;;;3.05;2.25;;;;;;;;;;4996114;28;20738;-77
2022/06/25 06:09:45;;;;;;;7.85;2.33;;;;;;;;;;4995663;28;20064;-75
2022/06/25 06:12:14;;;;;;;4.65;2.50;;;;;;;;;;4995643;28;20034;-75
2022/06/25 06:14:39;;;;;;;4.18;2.25;;;;;;;;;;4996451;28;20370;-77
2022/06/25 06:17:04;;;;;;;4.23;2.30;;;;;;;;;;4996135;28;20022;-76
2022/06/25 06:19:30;;;;;;;9.32;2.30;;;;;;;;;;4995984;28;20267;-76
2022/06/25 06:21:55;;;;;;;3.23;2.10;;;;;;;;;;4996913;28;20106;-76
2022/06/25 06:24:20;;;;;;;3.17;2.00;;;;;;;;;;4995428;28;20284;-77
2022/06/25 06:26:45;;;;;;;6.93;2.00;;;;;;;;;;4978362;28;20649;-76
2022/06/25 06:29:11;;;;;;;6.90;2.28;;;;;;;;;;4995629;28;20491;-75
2022/06/25 06:31:36;;;;;;;3.53;2.40;;;;;;;;;;4995115;28;20029;-77
2022/06/25 06:34:02;;;;;;;7.60;2.22;;;;;;;;;;4978264;28;20073;-76
2022/06/25 06:36:27;;;;;;;4.30;2.20;;;;;;;;;;4978129;28;20022;-76
2022/06/25 06:38:52;;;;;;;7.35;2.22;;;;;;;;;;4995855;28;20023;-77
2022/06/25 06:41:18;;;;;;;3.23;2.03;;;;;;;;;;4995565;28;20073;-76
2022/06/25 06:43:44;;;;;;;4.10;2.25;;;;;;;;;;4995044;28;20305;-76
2022/06/25 06:46:09;;;;;;;6.57;2.28;;;;;;;;;;4977256;28;20034;-75
2022/06/25 06:48:34;;;;;;;5.35;2.25;;;;;;;;;;4995274;28;20026;-75
2022/06/25 06:50:59;;;;;;;4.03;2.07;;;;;;;;;;4995041;28;20456;-76
2022/06/25 06:53:25;;;;;;;4.27;2.17;;;;;;;;;;4994939;28;20745;-76
2022/06/25 06:55:50;;;;;;;3.78;2.20;;;;;;;;;;4994655;28;20693;-76
2022/06/25 06:58:17;;;;;;;7.13;2.20;;;;;;;;;;4994962;28;20054;-76
2022/06/25 07:00:42;;;;;;;7.28;2.17;;;;;;;;;;4977242;28;20394;-75
2022/06/25 07:03:08;;;;;;;3.65;2.30;;;;;;;;;;4994825;28;20022;-77
2022/06/25 07:05:33;;;;;;;3.25;2.25;;;;;;;;;;4977122;28;20030;-77
2022/06/25 07:07:58;;;;;;;6.87;2.30;;;;;;;;;;4994524;28;20387;-76
2022/06/25 07:10:23;;;;;;;4.60;2.17;;;;;;;;;;4995127;28;20626;-76
2022/06/25 07:12:49;;;;;;;5.85;2.70;;;;;;;;;;4994558;28;20410;-76
2022/06/25 07:15:14;;;;;;;3.40;1.93;;;;;;;;;;4994312;28;20101;-76
2022/06/25 07:17:39;;;;;;;4.83;2.40;;;;;;;;;;4977882;28;20260;-76
2022/06/25 07:20:06;;;;;;;5.28;2.28;;;;;;;;;;4994813;28;20260;-78
2022/06/25 07:22:31;;;;;;;5.55;2.28;;;;;;;;;;4994766;28;20026;-76
2022/06/25 07:24:57;;;;;;;5.75;2.55;;;;;;;;;;4994243;28;20101;-76
2022/06/25 07:27:22;;;;;;;8.10;2.20;;;;;;;;;;4998430;28;20034;-76
2022/06/25 07:29:50;;;;;;;2.50;2.10;;;;;;;;;;4980654;28;20260;-76
2022/06/25 07:32:15;;;;;;;5.38;2.20;;;;;;;;;;4998350;28;20288;-75
2022/06/25 07:34:40;;;;;;;3.67;2.40;;;;;;;;;;4998878;28;20036;-76
2022/06/25 07:37:05;;;;;;;4.50;2.20;;;;;;;;;;4997831;28;20339;-76
2022/06/25 07:39:30;;;;;;;3.67;2.22;;;;;;;;;;4998640;28;20256;-75
2022/06/25 07:41:56;;;;;;;3.33;2.20;;;;;;;;;;4998436;28;20022;-76
2022/06/25 07:44:21;;;;;;;3.80;2.33;;;;;;;;;;4998170;28;20263;-76
2022/06/25 07:46:47;;;;;;;6.68;2.40;;;;;;;;;;4998058;28;20022;-77
2022/06/25 07:49:12;;;;;;;7.25;2.47;;;;;;;;;;4997930;28;20045;-77
2022/06/25 07:51:56;;;;;;;3.92;2.33;;;;;;;;;;4997909;28;20018;-76
2022/06/25 07:54:22;;;;;;;7.15;2.47;;;;;;;;;;4997812;28;20023;-77
2022/06/25 07:56:47;;;;;;;7.15;2.60;;;;;;;;;;4997690;28;20043;-76
2022/06/25 07:59:12;;;;;;;7.20;3.07;;;;;;;;;;4997194;28;20034;-75
2022/06/25 08:01:38;;;;;;;5.55;2.67;;;;;;;;;;4997234;28;20271;-75
2022/06/25 08:04:03;;;;;;;9.80;2.58;;;;;;;;;;4997283;28;20101;-77
2022/06/25 08:06:29;;;;;;;5.53;2.90;;;;;;;;;;4996692;28;20068;-75
2022/06/25 08:08:54;;;;;;;5.03;2.40;;;;;;;;;;4997380;28;20054;-76
2022/06/25 08:11:19;;;;;;;7.18;2.38;;;;;;;;;;4997396;28;20041;-76
2022/06/25 08:13:45;;;;;;;5.40;2.90;;;;;;;;;;4979444;28;20109;-76
2022/06/25 08:16:10;;;;;;;4.80;2.80;;;;;;;;;;4979613;28;20065;-77
2022/06/25 08:18:36;;;;;;;2.85;2.22;;;;;;;;;;4997096;28;20390;-76
2022/06/25 08:21:02;;;;;;;4.35;2.67;;;;;;;;;;4997728;28;20022;-77
2022/06/25 08:23:27;;;;;;;4.75;2.38;;;;;;;;;;4996798;28;20476;-77
2022/06/25 08:25:55;;;;;;;4.23;2.20;;;;;;;;;;4997416;28;20433;-76
2022/06/25 08:28:20;;;;;;;5.50;2.42;;;;;;;;;;4979363;28;20776;-76
2022/06/25 08:30:46;;;;;;;3.00;2.17;;;;;;;;;;4979840;28;20026;-77
2022/06/25 08:33:11;;;;;;;4.18;2.40;;;;;;;;;;4996818;28;20041;-77
2022/06/25 08:35:37;;;;;;;5.07;2.40;;;;;;;;;;4979170;28;20369;-75
2022/06/25 08:38:02;;;;;;;3.35;2.00;;;;;;;;;;4978423;28;20109;-76
2022/06/25 08:40:30;;;;;;;5.20;2.00;;;;;;;;;;4996712;28;20336;-77
2022/06/25 08:42:55;;;;;;;4.70;2.60;;;;;;;;;;4996868;28;20022;-76
2022/06/25 08:45:21;;;;;;;5.77;2.20;;;;;;;;;;4996930;28;20554;-76
2022/06/25 08:47:49;;;;;;;3.97;2.20;;;;;;;;;;4996942;28;20263;-76
2022/06/25 08:50:18;;;;;;;3.60;2.10;;;;;;;;;;4996845;28;20068;-76
2022/06/25 08:52:54;;;;;;;3.70;2.05;;;;;;;;;;4996672;28;20045;-77
2022/06/25 08:55:29;;;;;;;3.55;2.10;;;;;;;;;;4996139;28;20030;-76
2022/06/25 08:57:56;;;;;;;9.38;2.38;;;;;;;;;;4978964;28;20037;-76
2022/06/25 09:00:22;;;;;;;5.65;2.22;;;;;;;;;;4979858;28;20054;-75
2022/06/25 09:02:47;;;;;;;3.50;2.03;;;;;;;;;;4997424;28;20502;-76
2022/06/25 09:05:13;;;;;;;2.70;2.05;;;;;;;;;;4996028;28;20023;-76
2022/06/25 09:07:50;;;;;;;3.53;2.43;;;;;;;;;;4995774;28;20398;-76
2022/06/25 09:10:19;;;;;;;4.05;2.50;;;;;;;;;;4996126;28;20255;-77
2022/06/25 09:12:50;;;;;;;3.42;1.95;;;;;;;;;;4996044;28;20094;-76
2022/06/25 09:15:25;;;;;;;3.30;2.15;;;;;;;;;;4995847;28;20061;-76
2022/06/25 09:17:51;;;;;;;6.03;2.20;;;;;;;;;;4977937;28;20483;-76
2022/06/25 09:20:19;;;;;;;4.88;2.17;;;;;;;;;;4995402;28;20483;-76
2022/06/25 09:23:05;;;;;;;3.85;2.08;;;;;;;;;;4995657;28;20022;-76
2022/06/25 09:25:32;;;;;;;4.75;1.98;;;;;;;;;;4995608;28;20034;-76
2022/06/25 09:27:57;;;;;;;2.40;1.90;;;;;;;;;;4980612;28;20032;-75
2022/06/25 09:30:29;;;;;;;3.60;2.08;;;;;;;;;;4980803;28;20062;-76
2022/06/25 09:33:00;;;;;;;4.38;2.17;;;;;;;;;;4996469;28;20063;-76
2022/06/25 09:35:36;;;;;;;3.15;2.17;;;;;;;;;;4996780;28;20030;-75
2022/06/25 09:38:06;;;;;;;2.67;2.03;;;;;;;;;;4995895;28;20076;-76
2022/06/25 09:40:32;;;;;;;2.20;2.00;;;;;;;;;;4978504;28;20030;-74
2022/06/25 09:42:58;;;;;;;2.42;2.03;;;;;;;;;;4995878;28;20022;-75
2022/06/25 09:45:23;;;;;;;5.13;2.30;;;;;;;;;;4995883;28;20026;-75
2022/06/25 09:47:49;;;;;;;3.10;2.10;;;;;;;;;;4996884;28;20037;-76
2022/06/25 09:50:18;;;;;;;5.05;2.20;;;;;;;;;;4995016;28;20480;-76
2022/06/25 09:53:00;;;;;;;3.40;2.28;;;;;;;;;;4994528;28;20105;-76
2022/06/25 09:55:33;;;;;;;4.07;2.42;;;;;;;;;;4994908;28;20030;-75
2022/06/25 09:58:02;;;;;;;5.07;2.55;;;;;;;;;;4994681;28;20067;-75
2022/06/25 10:00:28;;;;;;;5.40;2.35;;;;;;;;;;4977357;28;20030;-75
2022/06/25 10:02:56;;;;;;;5.45;2.20;;;;;;;;;;4995006;28;20028;-76
2022/06/25 10:05:37;;;;;;;7.57;2.40;;;;;;;;;;4977232;28;20113;-75
2022/06/25 10:08:07;;;;;;;2.92;2.30;;;;;;;;;;4995366;28;20030;-76
2022/06/25 10:10:41;;;;;;;2.70;2.30;;;;;;;;;;4995086;28;20030;-76
2022/06/25 10:13:07;;;;;;;4.50;2.22;;;;;;;;;;4995368;28;20026;-75
2022/06/25 10:15:33;;;;;;;5.78;2.30;;;;;;;;;;4994711;28;20042;-76
2022/06/25 10:18:03;;;;;;;6.07;2.13;;;;;;;;;;4996707;28;20440;-75
2022/06/25 10:20:32;;;;;;;7.10;2.00;;;;;;;;;;4997216;28;20041;-75
2022/06/25 10:23:00;;;;;;;2.95;2.30;;;;;;;;;;5008484;28;20049;-76
2022/06/25 10:25:27;;;;;;;4.07;2.30;;;;;;;;;;5007136;28;20041;-75
2022/06/25 10:28:15;;;;;;;4.47;2.45;;;;;;;;;;5007796;28;20030;-74
2022/06/25 10:30:48;;;;;;;5.07;2.30;;;;;;;;;;5007759;28;20077;-73
2022/06/25 10:33:15;;;;;;;4.60;2.60;;;;;;;;;;4990809;28;20373;-74
2022/06/25 10:35:41;;;;;;;3.00;2.30;;;;;;;;;;5009661;28;20031;-75
2022/06/25 10:38:07;;;;;;;3.08;2.30;;;;;;;;;;4992274;28;20041;-76
2022/06/25 10:40:45;;;;;;;4.13;2.40;;;;;;;;;;4987694;28;20191;-75
2022/06/25 10:43:34;;;;;;;4.38;2.40;;;;;;;;;;5004952;28;20460;-75
2022/06/25 10:45:59;;;;;;;8.75;2.55;;;;;;;;;;4986190;28;20059;-76
2022/06/25 10:48:26;;;;;;;4.43;2.73;;;;;;;;;;4994844;28;20051;-76
2022/06/25 10:50:53;;;;;;;3.35;2.45;;;;;;;;;;4995046;28;20697;-74
2022/06/25 10:53:22;;;;;;;6.15;2.58;;;;;;;;;;4977739;28;20110;-76
2022/06/25 10:55:47;;;;;;;4.18;2.60;;;;;;;;;;4994574;28;20028;-76
2022/06/25 10:58:12;;;;;;;6.10;2.40;;;;;;;;;;4977381;28;20030;-76
2022/06/25 11:01:01;;;;;;;3.70;2.70;;;;;;;;;;4995555;28;20034;-75
2022/06/25 11:03:30;;;;;;;5.03;2.33;;;;;;;;;;4980850;28;20049;-76
2022/06/25 11:05:57;;;;;;;3.60;2.22;;;;;;;;;;4980585;28;20034;-75
2022/06/25 11:08:32;;;;;;;5.72;2.65;;;;;;;;;;4980609;28;20026;-76
2022/06/25 11:10:57;;;;;;;8.88;3.00;;;;;;;;;;4980399;28;20022;-77
2022/06/25 11:13:27;;;;;;;3.42;2.83;;;;;;;;;;4998072;28;20037;-75
2022/06/25 11:15:53;;;;;;;5.03;2.38;;;;;;;;;;4997535;28;20033;-76
2022/06/25 11:18:18;;;;;;;3.17;2.60;;;;;;;;;;4997837;28;20535;-76
2022/06/25 11:20:43;;;;;;;4.80;2.70;;;;;;;;;;4980968;28;20034;-75
2022/06/25 11:23:13;;;;;;;3.22;2.90;;;;;;;;;;4997630;28;20034;-77
2022/06/25 11:28:52;;;;;;;8.15;3.00;;;;;;;;;;4997520;28;20068;-75
2022/06/25 11:31:21;;;;;;;;;;;;;;;;;;4998179;28;20030;-77
2022/06/25 11:33:48;;;;;;;3.90;2.72;;;;;;;;;;4979630;28;19959;-77
2022/06/25 11:36:14;;;;;;;7.57;3.40;;;;;;;;;;4997409;28;20468;-76
2022/06/25 11:38:41;;;;;;;8.68;3.00;;;;;;;;;;4997150;28;20035;-76
2022/06/25 11:41:07;;;;;;;4.25;2.90;;;;;;;;;;4996952;28;20053;-75
2022/06/25 11:43:34;;;;;;;4.35;3.20;;;;;;;;;;4997394;28;20023;-77
2022/06/25 11:46:01;;;;;;;4.22;3.05;;;;;;;;;;4997308;28;20034;-75
2022/06/25 11:48:33;;;;;;;5.03;3.30;;;;;;;;;;4996932;28;20077;-76
2022/06/25 11:51:00;;;;;;;4.22;3.30;;;;;;;;;;4979056;28;20045;-77
2022/06/25 11:53:25;;;;;;;5.57;3.10;;;;;;;;;;4979202;28;20035;-77
2022/06/25 11:55:59;;;;;;;5.10;3.22;;;;;;;;;;4996698;28;20055;-76
2022/06/25 11:58:28;;;;;;;6.97;3.45;;;;;;;;;;4996445;28;20026;-77
2022/06/25 12:00:58;;;;;;;6.80;3.60;;;;;;;;;;4996558;28;20038;-77
2022/06/25 12:03:24;;;;;;;6.47;3.28;;;;;;;;;;4996814;28;20481;-76
2022/06/25 12:05:51;;;;;;;4.95;3.30;;;;;;;;;;4979471;28;20030;-76
2022/06/25 12:08:16;;;;;;;8.27;3.67;;;;;;;;;;4996068;28;20535;-77
2022/06/25 12:10:42;;;;;;;4.65;3.15;;;;;;;;;;4996236;28;20034;-77
2022/06/25 12:13:08;;;;;;;5.13;2.92;;;;;;;;;;4995970;28;20026;-76
2022/06/25 12:15:34;;;;;;;5.22;3.05;;;;;;;;;;4996279;28;20125;-77
2022/06/25 12:18:04;;;;;;;8.38;3.28;;;;;;;;;;4996455;28;20061;-76
2022/06/25 12:20:29;;;;;;;7.00;3.35;;;;;;;;;;4979227;28;20022;-76
2022/06/25 12:22:57;;;;;;;5.50;3.00;;;;;;;;;;4996960;28;20027;-77
2022/06/25 12:25:24;;;;;;;5.57;3.08;;;;;;;;;;4996813;28;20026;-77
2022/06/25 12:27:50;;;;;;;4.70;2.95;;;;;;;;;;4996808;28;20030;-77
2022/06/25 12:30:24;;;;;;;6.38;3.20;;;;;;;;;;4996871;28;20081;-76
2022/06/25 12:32:50;;;;;;;4.80;3.03;;;;;;;;;;4996898;28;20035;-76
2022/06/25 12:35:20;;;;;;;6.68;3.00;;;;;;;;;;4979648;28;20030;-77
2022/06/25 12:38:09;;;;;;;3.92;2.83;;;;;;;;;;4979357;28;20026;-76
2022/06/25 12:40:41;;;;;;;4.70;3.00;;;;;;;;;;4979718;28;20392;-77
2022/06/25 12:43:09;;;;;;;5.72;3.00;;;;;;;;;;4996466;28;20027;-76
2022/06/25 12:45:35;;;;;;;3.33;2.60;;;;;;;;;;4996410;28;20049;-77
2022/06/25 12:48:01;;;;;;;4.50;2.55;;;;;;;;;;4996120;28;20026;-76
2022/06/25 12:50:32;;;;;;;3.50;3.20;;;;;;;;;;4978268;28;20040;-76
2022/06/25 12:53:10;;;;;;;6.47;2.97;;;;;;;;;;4995698;28;20022;-77
2022/06/25 12:55:37;;;;;;;4.15;3.00;;;;;;;;;;4995778;28;20029;-76
2022/06/25 12:58:06;;;;;;;3.30;3.00;;;;;;;;;;4995705;28;20066;-76
2022/06/25 13:00:33;;;;;;;4.18;3.10;;;;;;;;;;4978506;28;20364;-76
2022/06/25 13:02:58;;;;;;;4.43;2.90;;;;;;;;;;4996268;28;20431;-77
2022/06/25 13:05:24;;;;;;;5.18;3.10;;;;;;;;;;4996171;28;20022;-75
2022/06/25 13:07:49;;;;;;;4.93;3.10;;;;;;;;;;4978335;28;20113;-75
2022/06/25 13:10:15;;;;;;;5.55;2.78;;;;;;;;;;4996429;28;20104;-76
2022/06/25 13:12:42;;;;;;;5.18;2.97;;;;;;;;;;4996936;28;20033;-76
2022/06/25 13:15:07;;;;;;;4.53;2.80;;;;;;;;;;4996458;28;20506;-75
2022/06/25 13:17:33;;;;;;;3.97;3.00;;;;;;;;;;4996008;28;20022;-75
2022/06/25 13:19:59;;;;;;;4.18;2.85;;;;;;;;;;4995799;28;20034;-76
2022/06/25 13:22:24;;;;;;;3.13;2.80;;;;;;;;;;4995155;28;20055;-75
2022/06/25 13:24:49;;;;;;;5.78;2.90;;;;;;;;;;4976809;28;20476;-76
2022/06/25 13:27:15;;;;;;;4.90;2.80;;;;;;;;;;4995165;28;20032;-75
2022/06/25 13:29:42;;;;;;;5.63;2.88;;;;;;;;;;4995953;28;20263;-76
2022/06/25 13:32:07;;;;;;;3.53;2.45;;;;;;;;;;4978514;28;20022;-77
2022/06/25 13:34:32;;;;;;;5.57;2.50;;;;;;;;;;4995879;28;20037;-76
2022/06/25 13:36:58;;;;;;;3.45;2.30;;;;;;;;;;4995761;28;20026;-76
2022/06/25 13:39:24;;;;;;;3.93;2.37;;;;;;;;;;4996238;28;20027;-76
2022/06/25 13:41:50;;;;;;;3.50;2.13;;;;;;;;;;4996102;28;20260;-76
2022/06/25 13:44:18;;;;;;;3.35;2.10;;;;;;;;;;4995884;28;20025;-74
2022/06/25 13:46:43;;;;;;;6.88;2.30;;;;;;;;;;4978805;28;20077;-77
2022/06/25 13:49:08;;;;;;;6.53;2.23;;;;;;;;;;4996574;28;20022;-75
2022/06/25 13:51:34;;;;;;;2.70;2.00;;;;;;;;;;4996145;28;20263;-76
2022/06/25 13:53:59;;;;;;;4.82;2.20;;;;;;;;;;4996147;28;20047;-75
2022/06/25 13:56:24;;;;;;;3.50;1.90;;;;;;;;;;4995139;28;20113;-76
2022/06/25 13:58:50;;;;;;;4.33;1.97;;;;;;;;;;4995876;28;20112;-76
2022/06/25 14:01:16;;;;;;;4.10;2.00;;;;;;;;;;4978453;28;20058;-76
2022/06/25 14:03:41;;;;;;;5.50;2.25;;;;;;;;;;4995825;28;20264;-76
2022/06/25 14:06:09;;;;;;;5.63;2.30;;;;;;;;;;4995599;28;20041;-76
2022/06/25 14:08:35;;;;;;;3.13;2.13;;;;;;;;;;4996145;28;20256;-75
2022/06/25 14:11:00;;;;;;;4.15;2.40;;;;;;;;;;4995523;28;20042;-74
2022/06/25 14:13:26;;;;;;;3.50;2.67;;;;;;;;;;4994989;28;20026;-76
2022/06/25 14:15:51;;;;;;;3.75;2.30;;;;;;;;;;4978304;28;20260;-77
2022/06/25 14:18:17;;;;;;;3.97;3.10;;;;;;;;;;4995407;28;20154;-77
2022/06/25 14:20:42;;;;;;;5.57;3.90;;;;;;;;;;4995600;28;20733;-76
2022/06/25 14:23:07;;;;;;;5.67;4.00;;;;;;;;;;4995443;28;20260;-75
2022/06/25 14:25:33;;;;;;;5.07;3.67;;;;;;;;;;4995332;28;20271;-77
2022/06/25 14:28:00;;;;;;;6.53;3.45;;;;;;;;;;4978047;28;20268;-77
2022/06/25 14:30:27;;;;;;;4.25;3.50;;;;;;;;;;4995481;28;20476;-76
2022/06/25 14:32:54;;;;;;;4.15;3.03;;;;;;;;;;4995660;28;20077;-77
2022/06/25 14:35:20;;;;;;;4.45;3.00;;;;;;;;;;4997417;28;20030;-76
2022/06/25 14:43:13;;;;;;;5.85;3.00;;;;;;;;;;4999915;28;20427;-75
2022/06/25 14:45:39;;;;;;;5.25;2.97;;;;;;;;;;4999226;28;20034;-76
2022/06/25 14:48:04;;;;;;;4.03;2.85;;;;;;;;;;4999377;28;20030;-75
2022/06/25 14:50:30;;;;;;;3.83;2.40;;;;;;;;;;4999160;28;20081;-76
2022/06/25 14:52:55;;;;;;;5.20;2.60;;;;;;;;;;4999667;28;20026;-76
2022/06/25 14:55:21;;;;;;;4.03;2.55;;;;;;;;;;4982067;28;20037;-75
2022/06/25 14:57:46;;;;;;;3.53;2.53;;;;;;;;;;4999552;28;20041;-75